createdAt,value
2022-08-25T00:02:03.025Z,101125.25
2022-08-25T00:05:05.802Z,101127.28
2022-08-25T00:08:08.889Z,101120.84
2022-08-25T00:11:14.920Z,101113.47
2022-08-25T00:14:26.683Z,101113.56
2022-08-25T00:17:28.950Z,101111.94
2022-08-25T00:20:31.798Z,101108.34
2022-08-25T00:23:34.083Z,101106.56
2022-08-25T00:26:40.431Z,101110.22
2022-08-25T00:29:42.635Z,101098.38
2022-08-25T00:32:55.486Z,101098.13
2022-08-25T00:36:00.338Z,101101.72
2022-08-25T00:39:02.498Z,101104.47
2022-08-25T00:42:05.611Z,101106.19
2022-08-25T00:45:13.771Z,101102.59
2022-08-25T00:48:16.014Z,101106.19
2022-08-25T00:51:26.002Z,101107.38
2022-08-25T00:54:32.815Z,101103.53
2022-08-25T00:57:43.823Z,101102.53
2022-08-25T01:00:49.673Z,101102.66
2022-08-25T01:03:52.046Z,101091.69
2022-08-25T01:06:55.477Z,101095.34
2022-08-25T01:09:57.557Z,101090.94
2022-08-25T01:13:18.238Z,101091.81
2022-08-25T01:16:20.645Z,101093.44
2022-08-25T01:19:22.941Z,101097.94
2022-08-25T01:22:26.767Z,101099.56
2022-08-25T01:25:47.393Z,101098.75
2022-08-25T01:29:09.142Z,101107.56
2022-08-25T01:32:14.203Z,101105.53
2022-08-25T01:35:16.579Z,101101.94
2022-08-25T01:38:20.943Z,101104.66
2022-08-25T01:41:46.308Z,101111.81
2022-08-25T01:44:49.104Z,101105.31
2022-08-25T01:47:51.087Z,101101.94
2022-08-25T01:50:53.396Z,101100.13
2022-08-25T01:53:55.504Z,101097.75
2022-08-25T01:56:58.825Z,101092.66
2022-08-25T02:00:01.843Z,101098.00
2022-08-25T02:03:18.723Z,101094.91
2022-08-25T02:06:32.056Z,101090.38
2022-08-25T02:09:36.629Z,101082.38
2022-08-25T02:12:39.018Z,101083.25
2022-08-25T02:15:44.436Z,101085.03
2022-08-25T02:18:47.580Z,101079.66
2022-08-25T02:21:50.428Z,101079.47
2022-08-25T02:24:55.984Z,101073.16
2022-08-25T02:27:58.559Z,101074.25
2022-08-25T02:31:01.723Z,101066.25
2022-08-25T02:34:04.278Z,101068.84
2022-08-25T02:37:06.231Z,101076.94
2022-08-25T02:40:09.093Z,101072.69
2022-08-25T02:43:11.214Z,101066.66
2022-08-25T02:46:13.539Z,101065.63
2022-08-25T02:49:15.661Z,101068.22
2022-08-25T02:52:18.616Z,101069.72
2022-08-25T02:55:20.800Z,101068.03
2022-08-25T02:58:23.788Z,101075.25
2022-08-25T03:01:28.733Z,101071.66
2022-08-25T03:04:32.027Z,101076.75
2022-08-25T03:07:35.443Z,101067.88
2022-08-25T03:10:38.999Z,101068.59
2022-08-25T03:13:41.155Z,101063.22
2022-08-25T03:16:46.231Z,101060.72
2022-08-25T03:19:48.700Z,101051.47
2022-08-25T03:22:50.910Z,101055.28
2022-08-25T03:26:15.201Z,101050.72
2022-08-25T03:29:18.180Z,101055.41
2022-08-25T03:32:20.511Z,101048.13
2022-08-25T03:35:23.267Z,101042.84
2022-08-25T03:38:26.227Z,101057.25
2022-08-25T03:41:32.492Z,101049.88
2022-08-25T03:44:34.704Z,101057.13
2022-08-25T03:47:37.315Z,101051.72
2022-08-25T03:50:50.476Z,101054.28
2022-08-25T03:53:54.449Z,101052.59
2022-08-25T03:56:56.642Z,101056.25
2022-08-25T03:59:58.962Z,101049.88
2022-08-25T04:03:01.298Z,101061.78
2022-08-25T04:06:05.463Z,101059.09
2022-08-25T04:09:08.149Z,101057.97
2022-08-25T04:12:10.349Z,101058.69
2022-08-25T04:15:12.335Z,101062.22
2022-08-25T04:18:15.217Z,101066.63
2022-08-25T04:21:18.295Z,101069.25
2022-08-25T04:24:21.885Z,101073.16
2022-08-25T04:27:23.926Z,101083.00
2022-08-25T04:30:26.242Z,101074.78
2022-08-25T04:33:28.281Z,101074.78
2022-08-25T04:36:30.980Z,101076.25
2022-08-25T04:39:33.123Z,101074.28
2022-08-25T04:42:35.400Z,101079.56
2022-08-25T04:45:39.747Z,101082.28
2022-08-25T04:48:42.667Z,101076.72
2022-08-25T04:51:44.947Z,101075.91
2022-08-25T04:54:47.536Z,101079.63
2022-08-25T04:57:49.898Z,101075.91
2022-08-25T05:00:52.450Z,101066.69
2022-08-25T05:03:59.472Z,101070.22
2022-08-25T05:07:02.248Z,101073.69
2022-08-25T05:10:04.580Z,101067.06
2022-08-25T05:13:06.818Z,101067.59
2022-08-25T05:16:09.893Z,101069.72
2022-08-25T05:19:13.984Z,101068.47
2022-08-25T05:22:16.021Z,101072.69
2022-08-25T05:25:18.750Z,101052.75
2022-08-25T05:28:21.192Z,101057.97
2022-08-25T05:31:24.875Z,101061.44
2022-08-25T05:34:27.097Z,101061.22
2022-08-25T05:37:29.378Z,101058.16
2022-08-25T05:40:31.932Z,101060.72
2022-08-25T05:43:34.956Z,101056.16
2022-08-25T05:46:37.022Z,101054.13
2022-08-25T05:49:39.272Z,101049.16
2022-08-25T05:52:41.418Z,101050.03
2022-08-25T05:55:47.337Z,101048.22
2022-08-25T05:58:50.294Z,101038.53
2022-08-25T06:02:10.902Z,101046.94
2022-08-25T06:05:17.495Z,101036.72
2022-08-25T06:08:19.921Z,101038.75
2022-08-25T06:11:21.985Z,101038.09
2022-08-25T06:14:24.585Z,101045.63
2022-08-25T06:17:26.723Z,101039.34
2022-08-25T06:20:30.700Z,101046.84
2022-08-25T06:23:34.182Z,101044.41
2022-08-25T06:26:37.470Z,101049.19
2022-08-25T06:29:39.514Z,101048.50
2022-08-25T06:32:45.083Z,101043.75
2022-08-25T06:35:47.103Z,101049.44
2022-08-25T06:38:49.449Z,101044.22
2022-08-25T06:41:55.334Z,101049.19
2022-08-25T06:45:01.422Z,101060.72
2022-08-25T06:48:03.624Z,101057.81
2022-08-25T06:51:14.086Z,101064.63
2022-08-25T06:54:16.530Z,101068.81
2022-08-25T06:57:19.180Z,101069.38
2022-08-25T07:00:21.536Z,101075.06
2022-08-25T07:06:33.021Z,101070.59
2022-08-25T07:09:39.025Z,101071.81
2022-08-25T07:12:41.582Z,101074.13
2022-08-25T07:15:44.428Z,101073.59
2022-08-25T07:18:48.153Z,101076.31
2022-08-25T07:21:53.263Z,101076.31
2022-08-25T07:24:55.316Z,101074.00
2022-08-25T07:27:59.048Z,101079.59
2022-08-25T07:31:01.743Z,101096.69
2022-08-25T07:34:22.702Z,101096.19
2022-08-25T07:37:48.014Z,101092.78
2022-08-25T07:40:54.633Z,101092.97
2022-08-25T07:43:59.139Z,101094.22
2022-08-25T07:47:01.550Z,101096.09
2022-08-25T07:50:05.792Z,101096.66
2022-08-25T07:53:09.511Z,101084.06
2022-08-25T07:56:15.113Z,101082.56
2022-08-25T07:59:18.813Z,101086.31
2022-08-25T08:02:21.010Z,101090.16
2022-08-25T08:05:27.713Z,101086.28
2022-08-25T08:08:29.800Z,101086.50
2022-08-25T08:11:37.295Z,101087.38
2022-08-25T08:14:44.869Z,101080.59
2022-08-25T08:17:48.207Z,101090.66
2022-08-25T08:20:50.326Z,101092.28
2022-08-25T08:23:58.731Z,101085.22
2022-08-25T08:27:02.906Z,101079.69
2022-08-25T08:30:06.645Z,101085.47
2022-08-25T08:33:11.393Z,101087.91
2022-08-25T08:36:14.795Z,101080.06
2022-08-25T08:39:17.735Z,101082.81
2022-08-25T08:42:47.217Z,101091.66
2022-08-25T08:45:53.108Z,101086.44
2022-08-25T08:49:01.713Z,101087.66
2022-08-25T08:52:04.763Z,101092.91
2022-08-25T08:55:13.185Z,101089.75
2022-08-25T08:58:26.198Z,101097.22
2022-08-25T09:01:35.892Z,101085.19
2022-08-25T09:04:48.624Z,101087.97
2022-08-25T09:08:00.264Z,101080.44
2022-08-25T09:11:21.328Z,101087.75
2022-08-25T09:15:12.261Z,101074.94
2022-08-25T09:18:27.303Z,101077.69
2022-08-25T09:21:45.544Z,101073.03
2022-08-25T09:25:08.763Z,101071.94
2022-08-25T09:28:52.359Z,101072.16
2022-08-25T09:32:07.913Z,101076.06
2022-08-25T09:35:26.355Z,101065.47
2022-08-25T09:38:31.030Z,101071.88
2022-08-25T09:41:52.787Z,101065.31
2022-08-25T09:44:55.031Z,101069.13
2022-08-25T09:47:57.520Z,101062.44
2022-08-25T09:51:02.839Z,101062.88
2022-08-25T09:54:18.870Z,101058.09
2022-08-25T09:57:37.369Z,101056.69
2022-08-25T10:00:39.774Z,101052.91
2022-08-25T10:03:57.004Z,101051.59
2022-08-25T10:07:00.999Z,101048.66
2022-08-25T10:10:08.462Z,101040.97
2022-08-25T10:13:14.988Z,101037.03
2022-08-25T10:16:36.110Z,101027.00
2022-08-25T10:19:39.030Z,101013.44
2022-08-25T10:22:43.339Z,101027.00
2022-08-25T10:26:00.429Z,101027.44
2022-08-25T10:29:12.112Z,101010.00
2022-08-25T10:32:46.223Z,101005.78
2022-08-25T10:36:14.852Z,101000.56
2022-08-25T10:39:40.739Z,100995.16
2022-08-25T10:43:08.546Z,100995.63
2022-08-25T10:46:37.195Z,100985.97
2022-08-25T10:49:47.337Z,100978.06
2022-08-25T10:53:11.044Z,100971.84
2022-08-25T10:56:43.695Z,100970.25
2022-08-25T11:00:02.531Z,100971.19
2022-08-25T11:03:29.962Z,100961.75
2022-08-25T11:07:00.837Z,100952.94
2022-08-25T11:10:16.352Z,100948.69
2022-08-25T11:13:43.891Z,100952.00
2022-08-25T11:17:12.629Z,100940.25
2022-08-25T11:20:27.039Z,100934.63
2022-08-25T11:23:40.051Z,100927.91
2022-08-25T11:26:47.396Z,100928.97
2022-08-25T11:30:02.070Z,100926.09
2022-08-25T11:33:13.079Z,100926.09
2022-08-25T11:36:21.068Z,100923.31
2022-08-25T11:40:00.722Z,100921.59
2022-08-25T11:43:24.691Z,100922.41
2022-08-25T11:46:46.660Z,100922.47
2022-08-25T11:50:00.478Z,100909.75
2022-08-25T11:53:42.427Z,100920.19
2022-08-25T11:56:56.592Z,100925.84
2022-08-25T12:00:10.252Z,100921.84
2022-08-25T12:03:36.907Z,100918.56
2022-08-25T12:07:11.261Z,100907.16
2022-08-25T12:10:25.289Z,100905.81
2022-08-25T12:13:47.593Z,100916.34
2022-08-25T12:16:55.496Z,100908.91
2022-08-25T12:19:59.624Z,100911.66
2022-08-25T12:23:02.572Z,100910.94
2022-08-25T12:26:19.735Z,100915.63
2022-08-25T12:29:42.142Z,100909.97
2022-08-25T12:33:15.796Z,100903.91
2022-08-25T12:36:33.293Z,100899.97
2022-08-25T12:39:37.582Z,100897.81
2022-08-25T12:42:43.895Z,100895.59
2022-08-25T12:45:47.709Z,100891.25
2022-08-25T12:49:05.738Z,100897.53
2022-08-25T12:52:13.344Z,100893.56
2022-08-25T12:55:16.015Z,100897.34
2022-08-25T12:58:18.730Z,100896.13
2022-08-25T13:01:48.516Z,100891.91
2022-08-25T13:05:22.377Z,100886.88
2022-08-25T13:09:01.962Z,100875.81
2022-08-25T13:12:22.306Z,100884.72
2022-08-25T13:15:47.329Z,100885.69
2022-08-25T13:18:51.832Z,100886.72
2022-08-25T13:21:56.137Z,100886.75
2022-08-25T13:28:05.073Z,100887.16
2022-08-25T13:31:22.144Z,100884.50
2022-08-25T13:34:34.699Z,100875.91
2022-08-25T13:37:37.520Z,100884.13
2022-08-25T13:40:39.837Z,100878.84
2022-08-25T13:43:45.874Z,100878.94
2022-08-25T13:46:48.606Z,100873.25
2022-08-25T13:49:53.427Z,100871.44
2022-08-25T13:53:22.976Z,100866.41
2022-08-25T13:56:40.046Z,100874.53
2022-08-25T13:59:46.505Z,100868.53
2022-08-25T14:02:53.220Z,100872.72
2022-08-25T14:06:19.404Z,100866.22
2022-08-25T14:09:28.178Z,100867.53
2022-08-25T14:12:35.551Z,100862.78
2022-08-25T14:15:38.879Z,100847.97
2022-08-25T14:18:48.695Z,100856.75
2022-08-25T14:21:56.757Z,100850.84
2022-08-25T14:24:58.976Z,100852.56
2022-08-25T14:28:25.511Z,100851.31
2022-08-25T14:31:34.259Z,100847.63
2022-08-25T14:34:37.986Z,100851.16
2022-08-25T14:37:41.703Z,100836.84
2022-08-25T14:40:44.639Z,100838.63
2022-08-25T14:43:47.678Z,100836.84
2022-08-25T14:46:54.919Z,100832.84
2022-08-25T14:49:57.037Z,100831.78
2022-08-25T14:53:00.604Z,100838.63
2022-08-25T14:56:09.320Z,100843.81
2022-08-25T14:59:15.442Z,100847.53
2022-08-25T15:02:20.209Z,100850.22
2022-08-25T15:05:28.404Z,100846.66
2022-08-25T15:08:49.412Z,100843.03
2022-08-25T15:11:54.740Z,100838.19
2022-08-25T15:14:58.370Z,100842.06
2022-08-25T15:18:01.420Z,100846.34
2022-08-25T15:21:03.732Z,100835.06
2022-08-25T15:24:08.858Z,100841.19
2022-08-25T15:27:13.515Z,100836.63
2022-08-25T15:30:16.005Z,100831.00
2022-08-25T15:33:18.139Z,100843.16
2022-08-25T15:36:24.663Z,100830.94
2022-08-25T15:39:28.048Z,100846.78
2022-08-25T15:42:30.412Z,100839.44
2022-08-25T15:45:32.840Z,100843.53
2022-08-25T15:48:35.958Z,100837.44
2022-08-25T15:51:38.253Z,100835.94
2022-08-25T15:54:41.064Z,100831.53
2022-08-25T15:57:45.043Z,100835.44
2022-08-25T16:00:56.172Z,100837.75
2022-08-25T16:03:59.567Z,100837.63
2022-08-25T16:07:02.180Z,100837.66
2022-08-25T16:10:06.728Z,100840.81
2022-08-25T16:13:10.584Z,100832.47
2022-08-25T16:16:13.990Z,100827.94
2022-08-25T16:19:16.575Z,100828.22
2022-08-25T16:22:18.836Z,100827.47
2022-08-25T16:25:21.906Z,100830.69
2022-08-25T16:28:24.539Z,100824.41
2022-08-25T16:31:27.401Z,100825.75
2022-08-25T16:34:30.899Z,100822.22
2022-08-25T16:37:35.986Z,100822.38
2022-08-25T16:40:42.427Z,100828.31
2022-08-25T16:43:45.802Z,100827.28
2022-08-25T16:46:48.321Z,100830.41
2022-08-25T16:49:50.591Z,100834.84
2022-08-25T16:53:12.404Z,100832.47
2022-08-25T16:56:15.033Z,100841.81
2022-08-25T16:59:17.283Z,100836.28
2022-08-25T17:02:19.624Z,100842.84
2022-08-25T17:05:23.817Z,100843.81
2022-08-25T17:08:30.600Z,100844.09
2022-08-25T17:11:35.861Z,100844.84
2022-08-25T17:14:38.226Z,100838.34
2022-08-25T17:17:40.247Z,100842.91
2022-08-25T17:20:45.236Z,100838.22
2022-08-25T17:23:48.271Z,100837.44
2022-08-25T17:26:53.756Z,100841.91
2022-08-25T17:29:56.261Z,100841.84
2022-08-25T17:33:00.087Z,100851.78
2022-08-25T17:36:02.378Z,100855.09
2022-08-25T17:39:05.028Z,100847.41
2022-08-25T17:42:07.622Z,100859.03
2022-08-25T17:45:10.997Z,100854.25
2022-08-25T17:48:13.967Z,100859.81
2022-08-25T17:51:16.514Z,100860.84
2022-08-25T17:54:18.759Z,100861.19
2022-08-25T17:57:21.201Z,100865.03
2022-08-25T18:00:23.780Z,100857.19
2022-08-25T18:03:27.478Z,100864.88
2022-08-25T18:06:31.075Z,100859.59
2022-08-25T18:09:33.394Z,100861.22
2022-08-25T18:12:36.776Z,100863.44
2022-08-25T18:15:42.502Z,100865.34
2022-08-25T18:18:44.774Z,100862.31
2022-08-25T18:21:47.084Z,100869.50
2022-08-25T18:24:49.460Z,100863.25
2022-08-25T18:27:57.524Z,100866.03
2022-08-25T18:31:00.691Z,100877.50
2022-08-25T18:34:09.798Z,100866.59
2022-08-25T18:37:31.461Z,100869.41
2022-08-25T18:40:36.007Z,100878.50
2022-08-25T18:43:38.703Z,100878.09
2022-08-25T18:46:42.265Z,100886.56
2022-08-25T18:49:47.080Z,100885.41
2022-08-25T18:52:55.176Z,100886.03
2022-08-25T18:55:58.200Z,100888.00
2022-08-25T18:59:00.851Z,100880.31
2022-08-25T19:02:03.034Z,100882.13
2022-08-25T19:05:07.679Z,100895.34
2022-08-25T19:08:15.021Z,100889.16
2022-08-25T19:11:22.289Z,100891.44
2022-08-25T19:14:26.470Z,100894.38
2022-08-25T19:17:28.804Z,100899.56
2022-08-25T19:20:40.568Z,100891.78
2022-08-25T19:23:42.928Z,100880.09
2022-08-25T19:26:45.703Z,100885.91
2022-08-25T19:29:47.994Z,100878.09
2022-08-25T19:32:51.929Z,100877.88
2022-08-25T19:35:54.859Z,100876.19
2022-08-25T19:39:01.252Z,100876.38
2022-08-25T19:42:04.143Z,100871.56
2022-08-25T19:45:09.811Z,100866.75
2022-08-25T19:48:13.823Z,100872.81
2022-08-25T19:51:16.440Z,100872.38
2022-08-25T19:54:51.346Z,100870.19
2022-08-25T19:57:54.764Z,100870.69
2022-08-25T20:00:57.139Z,100869.13
2022-08-25T20:03:59.210Z,100875.88
2022-08-25T20:07:02.556Z,100872.44
2022-08-25T20:10:08.588Z,100873.81
2022-08-25T20:13:16.764Z,100869.63
2022-08-25T20:16:19.373Z,100878.09
2022-08-25T20:19:23.100Z,100875.81
2022-08-25T20:22:27.724Z,100869.94
2022-08-25T20:25:36.828Z,100858.25
2022-08-25T20:28:42.065Z,100873.13
2022-08-25T20:31:46.832Z,100873.13
2022-08-25T20:34:55.711Z,100878.25
2022-08-25T20:37:59.288Z,100877.16
2022-08-25T20:41:01.846Z,100880.16
2022-08-25T20:44:05.729Z,100879.69
2022-08-25T20:47:10.327Z,100877.50
2022-08-25T20:50:12.788Z,100878.19
2022-08-25T20:53:17.698Z,100880.41
2022-08-25T20:56:20.809Z,100882.69
2022-08-25T20:59:24.175Z,100878.75
2022-08-25T21:02:27.899Z,100881.88
2022-08-25T21:05:30.313Z,100878.59
2022-08-25T21:08:34.142Z,100875.38
2022-08-25T21:11:37.891Z,100882.88
2022-08-25T21:14:43.919Z,100882.38
2022-08-25T21:17:54.497Z,100874.50
2022-08-25T21:20:56.942Z,100882.94
2022-08-25T21:24:00.629Z,100886.91
2022-08-25T21:27:03.996Z,100890.84
2022-08-25T21:30:07.608Z,100889.34
2022-08-25T21:33:09.931Z,100885.16
2022-08-25T21:36:14.496Z,100894.44
2022-08-25T21:39:17.552Z,100890.16
2022-08-25T21:42:20.893Z,100893.94
2022-08-25T21:45:24.346Z,100895.31
2022-08-25T21:48:26.346Z,100886.59
2022-08-25T21:51:34.983Z,100882.28
2022-08-25T21:54:42.562Z,100884.31
2022-08-25T21:57:44.840Z,100881.88
2022-08-25T22:00:46.871Z,100878.50
2022-08-25T22:03:49.875Z,100880.50
2022-08-25T22:06:52.400Z,100875.34
2022-08-25T22:09:54.997Z,100873.06
2022-08-25T22:12:57.336Z,100873.50
2022-08-25T22:15:59.596Z,100864.88
2022-08-25T22:19:03.450Z,100866.16
2022-08-25T22:22:06.878Z,100868.31
2022-08-25T22:25:09.104Z,100861.28
2022-08-25T22:28:14.416Z,100861.28
2022-08-25T22:31:20.739Z,100868.75
2022-08-25T22:34:30.235Z,100855.44
2022-08-25T22:37:32.576Z,100862.78
2022-08-25T22:40:38.708Z,100852.41
2022-08-25T22:43:41.957Z,100852.63
2022-08-25T22:46:44.634Z,100856.41
2022-08-25T22:49:47.596Z,100855.72
2022-08-25T22:52:50.129Z,100852.38
2022-08-25T22:55:53.082Z,100854.50
2022-08-25T22:59:04.474Z,100851.16
2022-08-25T23:02:07.033Z,100846.19
2022-08-25T23:05:12.403Z,100845.69
2022-08-25T23:08:14.695Z,100837.09
2022-08-25T23:11:18.252Z,100839.00
2022-08-25T23:14:20.829Z,100840.97
2022-08-25T23:17:24.666Z,100830.41
2022-08-25T23:20:49.823Z,100839.66
2022-08-25T23:23:53.578Z,100837.13
2022-08-25T23:26:55.972Z,100833.06
2022-08-25T23:29:58.293Z,100843.00
2022-08-25T23:33:01.397Z,100839.66
2022-08-25T23:36:07.233Z,100846.25
2022-08-25T23:39:09.451Z,100837.53
2022-08-25T23:42:11.711Z,100828.72
2022-08-25T23:45:15.793Z,100841.28
2022-08-25T23:48:18.812Z,100842.25
2022-08-25T23:51:23.947Z,100838.94
2022-08-25T23:54:30.869Z,100834.78
2022-08-25T23:57:33.763Z,100837.66
